This is the latest recevied weather packets stored in our database for station/object OE3FJB-25. If no packets are shown the sender has not sent any weather packets the latest 10 day(s).
| Time | Temp. | Humidity | Pressure | Rain* | Wind** | Luminosity | Snow |
|---|---|---|---|---|---|---|---|
| 1777448966 | 6.67° C | 50% | 1025.4 hPa | - | - | - | - |
| 1777448368 | 6.67° C | 50% | 1025.4 hPa | - | - | - | - |
| 1777447769 | 6.67° C | 51% | 1025.4 hPa | - | - | - | - |
| 1777447170 | 6.67° C | 53% | 1025.3 hPa | - | - | - | - |
| 1777446571 | 6.67° C | 55% | 1025.4 hPa | - | - | - | - |
| 1777445973 | 5.56° C | 58% | 1025.3 hPa | - | - | - | - |
| 1777445374 | 5.56° C | 59% | 1025.3 hPa | - | - | - | - |
| 1777444775 | 6.11° C | 57% | 1025.3 hPa | - | - | - | - |
| 1777444177 | 5.56° C | 59% | 1025.2 hPa | - | - | - | - |
| 1777443578 | 5° C | 61% | 1025.1 hPa | - | - | - | - |
| 1777442979 | 4.44° C | 65% | 1025 hPa | - | - | - | - |
| 1777442381 | 3.89° C | 68% | 1025 hPa | - | - | - | - |
| 1777441782 | 3.89° C | 69% | 1025 hPa | - | - | - | - |
| 1777441183 | 3.89° C | 70% | 1025 hPa | - | - | - | - |
| 1777440584 | 3.33° C | 72% | 1024.9 hPa | - | - | - | - |
| 1777439985 | 3.33° C | 69% | 1024.8 hPa | - | - | - | - |
| 1777439387 | 2.78° C | 70% | 1024.8 hPa | - | - | - | - |
| 1777438788 | 2.78° C | 72% | 1024.7 hPa | - | - | - | - |
| 1777438189 | 2.78° C | 74% | 1024.6 hPa | - | - | - | - |
| 1777437591 | 2.22° C | 75% | 1024.7 hPa | - | - | - | - |
| 1777436992 | 2.22° C | 75% | 1024.6 hPa | - | - | - | - |
| 1777436393 | 2.22° C | 76% | 1024.5 hPa | - | - | - | - |
| 1777435794 | 2.22° C | 78% | 1024.4 hPa | - | - | - | - |
| 1777435196 | 2.22° C | 79% | 1024.3 hPa | - | - | - | - |
| 1777434597 | 2.22° C | 79% | 1024.2 hPa | - | - | - | - |
* Rain since midnight (hover to see other rain measurements)
** Current wind speed in m/s (hover to see current wind gust speed)